sensor_id;sensor_type;location;lat;lon;timestamp;P1;durP1;ratioP1;P2;durP2;ratioP2
48853;SDS011;34673;52.808;17.856;2022-07-29T00:01:06;6.32;;;1.85;;
48853;SDS011;34673;52.808;17.856;2022-07-29T00:03:45;5.18;;;1.60;;
48853;SDS011;34673;52.808;17.856;2022-07-29T00:06:12;7.47;;;1.80;;
48853;SDS011;34673;52.808;17.856;2022-07-29T00:08:40;7.80;;;1.50;;
48853;SDS011;34673;52.808;17.856;2022-07-29T00:11:07;7.53;;;2.00;;
48853;SDS011;34673;52.808;17.856;2022-07-29T00:13:34;6.70;;;1.90;;
48853;SDS011;34673;52.808;17.856;2022-07-29T00:16:01;5.00;;;1.63;;
48853;SDS011;34673;52.808;17.856;2022-07-29T00:18:30;5.13;;;2.67;;
48853;SDS011;34673;52.808;17.856;2022-07-29T00:20:58;4.68;;;1.40;;
48853;SDS011;34673;52.808;17.856;2022-07-29T00:23:26;3.97;;;1.70;;
48853;SDS011;34673;52.808;17.856;2022-07-29T00:25:53;5.90;;;1.55;;
48853;SDS011;34673;52.808;17.856;2022-07-29T00:28:20;10.23;;;2.03;;
48853;SDS011;34673;52.808;17.856;2022-07-29T00:30:47;5.80;;;1.60;;
48853;SDS011;34673;52.808;17.856;2022-07-29T00:33:14;7.32;;;2.20;;
48853;SDS011;34673;52.808;17.856;2022-07-29T00:35:41;6.15;;;1.65;;
48853;SDS011;34673;52.808;17.856;2022-07-29T00:38:12;4.93;;;1.80;;
48853;SDS011;34673;52.808;17.856;2022-07-29T00:40:41;4.97;;;1.70;;
48853;SDS011;34673;52.808;17.856;2022-07-29T00:43:10;5.35;;;1.98;;
48853;SDS011;34673;52.808;17.856;2022-07-29T00:45:38;7.20;;;1.63;;
48853;SDS011;34673;52.808;17.856;2022-07-29T00:48:05;5.35;;;1.80;;
48853;SDS011;34673;52.808;17.856;2022-07-29T00:50:35;8.95;;;2.17;;
48853;SDS011;34673;52.808;17.856;2022-07-29T00:53:04;7.38;;;1.77;;
48853;SDS011;34673;52.808;17.856;2022-07-29T00:55:33;9.90;;;1.80;;
48853;SDS011;34673;52.808;17.856;2022-07-29T00:58:00;4.60;;;1.75;;
48853;SDS011;34673;52.808;17.856;2022-07-29T01:00:28;7.32;;;1.92;;
48853;SDS011;34673;52.808;17.856;2022-07-29T01:02:56;6.78;;;2.10;;
48853;SDS011;34673;52.808;17.856;2022-07-29T01:05:24;7.65;;;1.98;;
48853;SDS011;34673;52.808;17.856;2022-07-29T01:08:13;10.90;;;2.42;;
48853;SDS011;34673;52.808;17.856;2022-07-29T01:10:41;7.90;;;2.13;;
48853;SDS011;34673;52.808;17.856;2022-07-29T01:13:11;5.63;;;1.70;;
48853;SDS011;34673;52.808;17.856;2022-07-29T01:15:44;5.22;;;1.83;;
48853;SDS011;34673;52.808;17.856;2022-07-29T01:18:17;7.47;;;2.13;;
48853;SDS011;34673;52.808;17.856;2022-07-29T01:27:14;5.03;;;1.83;;
48853;SDS011;34673;52.808;17.856;2022-07-29T01:30:02;6.57;;;2.20;;
48853;SDS011;34673;52.808;17.856;2022-07-29T01:32:35;8.48;;;1.90;;
48853;SDS011;34673;52.808;17.856;2022-07-29T01:35:16;8.43;;;2.22;;
48853;SDS011;34673;52.808;17.856;2022-07-29T01:37:55;8.02;;;2.10;;
48853;SDS011;34673;52.808;17.856;2022-07-29T01:42:55;5.85;;;1.85;;
48853;SDS011;34673;52.808;17.856;2022-07-29T01:45:26;7.13;;;2.20;;
48853;SDS011;34673;52.808;17.856;2022-07-29T01:48:08;8.15;;;2.35;;
48853;SDS011;34673;52.808;17.856;2022-07-29T01:50:42;7.18;;;2.03;;
48853;SDS011;34673;52.808;17.856;2022-07-29T01:53:38;6.18;;;2.00;;
48853;SDS011;34673;52.808;17.856;2022-07-29T01:56:09;5.78;;;2.70;;
48853;SDS011;34673;52.808;17.856;2022-07-29T01:58:39;6.83;;;2.10;;
48853;SDS011;34673;52.808;17.856;2022-07-29T02:01:08;8.40;;;2.33;;
48853;SDS011;34673;52.808;17.856;2022-07-29T02:03:36;5.10;;;1.80;;
48853;SDS011;34673;52.808;17.856;2022-07-29T02:06:06;11.33;;;2.20;;
48853;SDS011;34673;52.808;17.856;2022-07-29T02:08:35;4.15;;;2.03;;
48853;SDS011;34673;52.808;17.856;2022-07-29T02:11:05;6.50;;;2.25;;
48853;SDS011;34673;52.808;17.856;2022-07-29T02:13:35;6.73;;;2.70;;
48853;SDS011;34673;52.808;17.856;2022-07-29T02:16:04;6.07;;;1.88;;
48853;SDS011;34673;52.808;17.856;2022-07-29T02:18:34;5.82;;;2.30;;
48853;SDS011;34673;52.808;17.856;2022-07-29T02:21:04;6.72;;;2.60;;
48853;SDS011;34673;52.808;17.856;2022-07-29T02:23:40;5.00;;;1.98;;
48853;SDS011;34673;52.808;17.856;2022-07-29T02:26:17;8.02;;;2.20;;
48853;SDS011;34673;52.808;17.856;2022-07-29T02:28:47;11.32;;;2.97;;
48853;SDS011;34673;52.808;17.856;2022-07-29T02:31:17;7.82;;;2.00;;
48853;SDS011;34673;52.808;17.856;2022-07-29T02:33:48;7.65;;;2.40;;
48853;SDS011;34673;52.808;17.856;2022-07-29T02:36:18;9.82;;;2.30;;
48853;SDS011;34673;52.808;17.856;2022-07-29T02:41:20;9.75;;;1.90;;
48853;SDS011;34673;52.808;17.856;2022-07-29T02:43:57;8.27;;;2.58;;
48853;SDS011;34673;52.808;17.856;2022-07-29T02:46:34;5.90;;;2.47;;
48853;SDS011;34673;52.808;17.856;2022-07-29T02:52:04;5.30;;;2.13;;
48853;SDS011;34673;52.808;17.856;2022-07-29T02:54:41;6.65;;;2.30;;
48853;SDS011;34673;52.808;17.856;2022-07-29T03:00:23;7.60;;;2.58;;
48853;SDS011;34673;52.808;17.856;2022-07-29T03:02:54;10.23;;;2.45;;
48853;SDS011;34673;52.808;17.856;2022-07-29T03:05:25;10.07;;;3.33;;
48853;SDS011;34673;52.808;17.856;2022-07-29T03:07:57;6.78;;;2.70;;
48853;SDS011;34673;52.808;17.856;2022-07-29T03:10:28;7.40;;;2.72;;
48853;SDS011;34673;52.808;17.856;2022-07-29T03:12:56;10.35;;;2.90;;
48853;SDS011;34673;52.808;17.856;2022-07-29T03:15:24;6.82;;;2.65;;
48853;SDS011;34673;52.808;17.856;2022-07-29T03:17:52;7.05;;;2.92;;
48853;SDS011;34673;52.808;17.856;2022-07-29T03:20:20;9.20;;;2.92;;
48853;SDS011;34673;52.808;17.856;2022-07-29T03:22:47;7.75;;;2.97;;
48853;SDS011;34673;52.808;17.856;2022-07-29T03:25:16;9.13;;;3.17;;
48853;SDS011;34673;52.808;17.856;2022-07-29T03:27:46;8.00;;;3.08;;
48853;SDS011;34673;52.808;17.856;2022-07-29T03:30:15;7.95;;;2.80;;
48853;SDS011;34673;52.808;17.856;2022-07-29T03:32:48;6.43;;;2.60;;
48853;SDS011;34673;52.808;17.856;2022-07-29T03:35:18;8.15;;;3.22;;
48853;SDS011;34673;52.808;17.856;2022-07-29T03:37:49;5.40;;;3.08;;
48853;SDS011;34673;52.808;17.856;2022-07-29T03:40:20;8.50;;;3.38;;
48853;SDS011;34673;52.808;17.856;2022-07-29T03:42:52;9.43;;;3.75;;
48853;SDS011;34673;52.808;17.856;2022-07-29T03:45:21;8.65;;;2.90;;
48853;SDS011;34673;52.808;17.856;2022-07-29T03:47:55;6.10;;;3.00;;
48853;SDS011;34673;52.808;17.856;2022-07-29T03:50:27;9.65;;;3.20;;
48853;SDS011;34673;52.808;17.856;2022-07-29T03:52:56;9.15;;;3.55;;
48853;SDS011;34673;52.808;17.856;2022-07-29T03:55:24;6.25;;;3.60;;
48853;SDS011;34673;52.808;17.856;2022-07-29T03:57:52;6.85;;;3.95;;
48853;SDS011;34673;52.808;17.856;2022-07-29T04:00:23;11.10;;;3.77;;
48853;SDS011;34673;52.808;17.856;2022-07-29T04:02:52;6.85;;;3.15;;
48853;SDS011;34673;52.808;17.856;2022-07-29T04:05:19;7.28;;;3.63;;
48853;SDS011;34673;52.808;17.856;2022-07-29T04:07:47;8.93;;;3.45;;
48853;SDS011;34673;52.808;17.856;2022-07-29T04:10:14;7.85;;;3.28;;
48853;SDS011;34673;52.808;17.856;2022-07-29T04:12:57;5.95;;;3.50;;
48853;SDS011;34673;52.808;17.856;2022-07-29T04:15:24;5.93;;;3.25;;
48853;SDS011;34673;52.808;17.856;2022-07-29T04:17:57;9.75;;;3.90;;
48853;SDS011;34673;52.808;17.856;2022-07-29T04:20:24;7.22;;;3.35;;
48853;SDS011;34673;52.808;17.856;2022-07-29T04:22:52;14.43;;;4.32;;
48853;SDS011;34673;52.808;17.856;2022-07-29T04:25:19;8.60;;;3.78;;
48853;SDS011;34673;52.808;17.856;2022-07-29T04:27:46;9.15;;;3.90;;
48853;SDS011;34673;52.808;17.856;2022-07-29T04:30:29;8.13;;;3.70;;
48853;SDS011;34673;52.808;17.856;2022-07-29T04:32:57;6.03;;;3.38;;
48853;SDS011;34673;52.808;17.856;2022-07-29T04:35:25;9.73;;;3.55;;
48853;SDS011;34673;52.808;17.856;2022-07-29T04:37:52;5.80;;;2.80;;
48853;SDS011;34673;52.808;17.856;2022-07-29T04:40:19;6.68;;;3.03;;
48853;SDS011;34673;52.808;17.856;2022-07-29T04:42:47;8.85;;;2.53;;
48853;SDS011;34673;52.808;17.856;2022-07-29T04:45:15;8.18;;;3.15;;
48853;SDS011;34673;52.808;17.856;2022-07-29T04:47:48;7.20;;;2.70;;
48853;SDS011;34673;52.808;17.856;2022-07-29T04:50:15;6.45;;;3.05;;
48853;SDS011;34673;52.808;17.856;2022-07-29T04:52:43;7.15;;;2.92;;
48853;SDS011;34673;52.808;17.856;2022-07-29T04:55:10;7.60;;;2.70;;
48853;SDS011;34673;52.808;17.856;2022-07-29T04:57:37;8.75;;;2.58;;
48853;SDS011;34673;52.808;17.856;2022-07-29T05:00:05;6.20;;;2.95;;
48853;SDS011;34673;52.808;17.856;2022-07-29T05:02:33;8.38;;;3.13;;
48853;SDS011;34673;52.808;17.856;2022-07-29T05:05:00;6.28;;;2.88;;
48853;SDS011;34673;52.808;17.856;2022-07-29T05:07:27;5.78;;;2.80;;
48853;SDS011;34673;52.808;17.856;2022-07-29T05:09:54;8.43;;;3.30;;
48853;SDS011;34673;52.808;17.856;2022-07-29T05:12:23;7.28;;;3.20;;
48853;SDS011;34673;52.808;17.856;2022-07-29T05:14:51;6.88;;;3.10;;
48853;SDS011;34673;52.808;17.856;2022-07-29T05:17:18;11.25;;;3.50;;
48853;SDS011;34673;52.808;17.856;2022-07-29T05:19:45;7.13;;;3.10;;
48853;SDS011;34673;52.808;17.856;2022-07-29T05:22:12;6.82;;;3.55;;
48853;SDS011;34673;52.808;17.856;2022-07-29T05:24:40;10.00;;;4.20;;
48853;SDS011;34673;52.808;17.856;2022-07-29T05:27:07;5.70;;;3.30;;
48853;SDS011;34673;52.808;17.856;2022-07-29T05:29:34;6.40;;;4.00;;
48853;SDS011;34673;52.808;17.856;2022-07-29T05:32:11;7.05;;;4.35;;
48853;SDS011;34673;52.808;17.856;2022-07-29T05:34:39;7.18;;;4.20;;
48853;SDS011;34673;52.808;17.856;2022-07-29T05:37:18;7.07;;;5.07;;
48853;SDS011;34673;52.808;17.856;2022-07-29T05:39:46;9.32;;;5.05;;
48853;SDS011;34673;52.808;17.856;2022-07-29T05:42:22;7.15;;;4.40;;
48853;SDS011;34673;52.808;17.856;2022-07-29T05:44:49;8.77;;;4.55;;
48853;SDS011;34673;52.808;17.856;2022-07-29T05:47:16;9.45;;;4.97;;
48853;SDS011;34673;52.808;17.856;2022-07-29T05:49:43;6.72;;;4.75;;
48853;SDS011;34673;52.808;17.856;2022-07-29T05:52:10;8.20;;;5.20;;
48853;SDS011;34673;52.808;17.856;2022-07-29T05:54:39;7.30;;;4.82;;
48853;SDS011;34673;52.808;17.856;2022-07-29T05:57:07;7.82;;;4.88;;
48853;SDS011;34673;52.808;17.856;2022-07-29T05:59:37;9.43;;;4.72;;
48853;SDS011;34673;52.808;17.856;2022-07-29T06:02:04;10.18;;;5.15;;
48853;SDS011;34673;52.808;17.856;2022-07-29T06:04:32;12.95;;;5.55;;
48853;SDS011;34673;52.808;17.856;2022-07-29T06:07:00;8.50;;;5.20;;
48853;SDS011;34673;52.808;17.856;2022-07-29T06:09:28;10.07;;;5.38;;
48853;SDS011;34673;52.808;17.856;2022-07-29T06:11:55;7.00;;;4.45;;
48853;SDS011;34673;52.808;17.856;2022-07-29T06:14:24;8.38;;;4.78;;
48853;SDS011;34673;52.808;17.856;2022-07-29T06:16:53;10.00;;;5.57;;
48853;SDS011;34673;52.808;17.856;2022-07-29T06:19:20;10.35;;;4.82;;
48853;SDS011;34673;52.808;17.856;2022-07-29T06:21:48;9.23;;;5.22;;
48853;SDS011;34673;52.808;17.856;2022-07-29T06:24:15;11.73;;;5.55;;
48853;SDS011;34673;52.808;17.856;2022-07-29T06:26:43;9.10;;;5.05;;
48853;SDS011;34673;52.808;17.856;2022-07-29T06:29:10;10.73;;;5.43;;
48853;SDS011;34673;52.808;17.856;2022-07-29T06:31:37;10.30;;;5.75;;
48853;SDS011;34673;52.808;17.856;2022-07-29T06:34:05;10.93;;;4.95;;
48853;SDS011;34673;52.808;17.856;2022-07-29T06:36:36;9.93;;;6.10;;
48853;SDS011;34673;52.808;17.856;2022-07-29T06:39:06;11.48;;;5.35;;
48853;SDS011;34673;52.808;17.856;2022-07-29T06:41:34;12.82;;;5.68;;
48853;SDS011;34673;52.808;17.856;2022-07-29T06:44:08;13.80;;;5.50;;
48853;SDS011;34673;52.808;17.856;2022-07-29T06:46:35;10.52;;;5.60;;
48853;SDS011;34673;52.808;17.856;2022-07-29T06:49:03;9.70;;;5.20;;
48853;SDS011;34673;52.808;17.856;2022-07-29T06:51:31;12.15;;;5.65;;
48853;SDS011;34673;52.808;17.856;2022-07-29T06:53:58;11.48;;;5.13;;
48853;SDS011;34673;52.808;17.856;2022-07-29T06:56:29;11.57;;;5.03;;
48853;SDS011;34673;52.808;17.856;2022-07-29T06:59:05;7.95;;;3.90;;
48853;SDS011;34673;52.808;17.856;2022-07-29T07:01:33;6.72;;;4.22;;
48853;SDS011;34673;52.808;17.856;2022-07-29T07:04:02;7.45;;;3.72;;
48853;SDS011;34673;52.808;17.856;2022-07-29T07:06:29;10.70;;;4.88;;
48853;SDS011;34673;52.808;17.856;2022-07-29T07:08:56;11.02;;;4.50;;
48853;SDS011;34673;52.808;17.856;2022-07-29T07:11:24;10.77;;;4.60;;
48853;SDS011;34673;52.808;17.856;2022-07-29T07:13:51;6.78;;;3.80;;
48853;SDS011;34673;52.808;17.856;2022-07-29T07:16:18;9.32;;;4.00;;
48853;SDS011;34673;52.808;17.856;2022-07-29T07:18:45;9.00;;;3.80;;
48853;SDS011;34673;52.808;17.856;2022-07-29T07:21:13;6.55;;;4.13;;
48853;SDS011;34673;52.808;17.856;2022-07-29T07:23:45;9.27;;;3.63;;
48853;SDS011;34673;52.808;17.856;2022-07-29T07:26:13;5.70;;;3.30;;
48853;SDS011;34673;52.808;17.856;2022-07-29T07:28:41;6.38;;;3.58;;
48853;SDS011;34673;52.808;17.856;2022-07-29T07:31:08;5.95;;;3.67;;
48853;SDS011;34673;52.808;17.856;2022-07-29T07:33:36;5.32;;;3.10;;
48853;SDS011;34673;52.808;17.856;2022-07-29T07:36:03;5.80;;;3.20;;
48853;SDS011;34673;52.808;17.856;2022-07-29T07:38:30;7.72;;;3.03;;
48853;SDS011;34673;52.808;17.856;2022-07-29T07:40:57;7.30;;;2.97;;
48853;SDS011;34673;52.808;17.856;2022-07-29T07:43:25;4.00;;;2.60;;
48853;SDS011;34673;52.808;17.856;2022-07-29T07:45:52;5.22;;;2.60;;
48853;SDS011;34673;52.808;17.856;2022-07-29T07:48:19;6.53;;;2.90;;
48853;SDS011;34673;52.808;17.856;2022-07-29T07:50:47;4.57;;;2.40;;
48853;SDS011;34673;52.808;17.856;2022-07-29T07:53:16;10.07;;;2.70;;
48853;SDS011;34673;52.808;17.856;2022-07-29T07:55:43;4.35;;;2.17;;
48853;SDS011;34673;52.808;17.856;2022-07-29T07:58:30;3.90;;;1.80;;
48853;SDS011;34673;52.808;17.856;2022-07-29T08:00:57;4.32;;;1.90;;
48853;SDS011;34673;52.808;17.856;2022-07-29T08:03:25;4.35;;;1.77;;
48853;SDS011;34673;52.808;17.856;2022-07-29T08:05:52;3.70;;;2.13;;
48853;SDS011;34673;52.808;17.856;2022-07-29T08:08:20;6.10;;;1.80;;
48853;SDS011;34673;52.808;17.856;2022-07-29T08:10:48;4.32;;;1.67;;
48853;SDS011;34673;52.808;17.856;2022-07-29T08:13:30;4.68;;;1.48;;
48853;SDS011;34673;52.808;17.856;2022-07-29T08:15:59;4.63;;;1.40;;
48853;SDS011;34673;52.808;17.856;2022-07-29T08:18:28;3.07;;;1.40;;
48853;SDS011;34673;52.808;17.856;2022-07-29T08:20:57;3.47;;;1.50;;
48853;SDS011;34673;52.808;17.856;2022-07-29T08:23:25;5.07;;;1.58;;
48853;SDS011;34673;52.808;17.856;2022-07-29T08:26:12;4.95;;;1.45;;
48853;SDS011;34673;52.808;17.856;2022-07-29T08:28:40;4.53;;;1.52;;
48853;SDS011;34673;52.808;17.856;2022-07-29T08:31:12;3.75;;;1.30;;
48853;SDS011;34673;52.808;17.856;2022-07-29T08:33:41;4.15;;;1.27;;
48853;SDS011;34673;52.808;17.856;2022-07-29T08:36:08;2.80;;;1.38;;
48853;SDS011;34673;52.808;17.856;2022-07-29T08:38:36;5.22;;;1.75;;
48853;SDS011;34673;52.808;17.856;2022-07-29T08:41:03;7.45;;;1.27;;
48853;SDS011;34673;52.808;17.856;2022-07-29T08:43:31;2.72;;;0.90;;
48853;SDS011;34673;52.808;17.856;2022-07-29T08:45:58;4.40;;;1.25;;
48853;SDS011;34673;52.808;17.856;2022-07-29T08:48:27;3.20;;;1.40;;
48853;SDS011;34673;52.808;17.856;2022-07-29T08:50:55;4.25;;;1.40;;
48853;SDS011;34673;52.808;17.856;2022-07-29T08:53:23;5.28;;;1.27;;
48853;SDS011;34673;52.808;17.856;2022-07-29T08:58:21;4.00;;;1.17;;
48853;SDS011;34673;52.808;17.856;2022-07-29T09:00:52;3.58;;;1.60;;
48853;SDS011;34673;52.808;17.856;2022-07-29T09:05:52;2.53;;;1.10;;
48853;SDS011;34673;52.808;17.856;2022-07-29T09:08:20;4.90;;;1.25;;
48853;SDS011;34673;52.808;17.856;2022-07-29T09:10:48;3.10;;;1.33;;
48853;SDS011;34673;52.808;17.856;2022-07-29T09:13:16;7.10;;;1.30;;
48853;SDS011;34673;52.808;17.856;2022-07-29T09:15:43;3.15;;;1.05;;
48853;SDS011;34673;52.808;17.856;2022-07-29T09:18:11;4.32;;;1.42;;
48853;SDS011;34673;52.808;17.856;2022-07-29T09:20:56;9.35;;;2.00;;
48853;SDS011;34673;52.808;17.856;2022-07-29T09:23:58;2.95;;;1.33;;
48853;SDS011;34673;52.808;17.856;2022-07-29T09:26:34;4.90;;;1.48;;
48853;SDS011;34673;52.808;17.856;2022-07-29T09:29:16;4.47;;;1.75;;
48853;SDS011;34673;52.808;17.856;2022-07-29T09:31:49;3.30;;;1.65;;
48853;SDS011;34673;52.808;17.856;2022-07-29T09:34:25;6.03;;;1.70;;
48853;SDS011;34673;52.808;17.856;2022-07-29T09:36:55;3.13;;;1.27;;
48853;SDS011;34673;52.808;17.856;2022-07-29T09:39:26;6.32;;;1.30;;
48853;SDS011;34673;52.808;17.856;2022-07-29T09:41:59;3.92;;;1.75;;
48853;SDS011;34673;52.808;17.856;2022-07-29T09:44:47;4.20;;;1.40;;
48853;SDS011;34673;52.808;17.856;2022-07-29T09:47:16;7.28;;;1.80;;
48853;SDS011;34673;52.808;17.856;2022-07-29T09:49:52;4.15;;;1.60;;
48853;SDS011;34673;52.808;17.856;2022-07-29T09:52:20;5.13;;;1.90;;
48853;SDS011;34673;52.808;17.856;2022-07-29T09:54:48;6.07;;;1.55;;
48853;SDS011;34673;52.808;17.856;2022-07-29T09:57:26;5.28;;;1.70;;
48853;SDS011;34673;52.808;17.856;2022-07-29T09:59:57;4.38;;;1.60;;
48853;SDS011;34673;52.808;17.856;2022-07-29T10:02:31;4.38;;;1.83;;
48853;SDS011;34673;52.808;17.856;2022-07-29T10:05:00;5.70;;;1.63;;
48853;SDS011;34673;52.808;17.856;2022-07-29T10:10:20;3.50;;;1.67;;
48853;SDS011;34673;52.808;17.856;2022-07-29T10:12:55;3.58;;;1.50;;
48853;SDS011;34673;52.808;17.856;2022-07-29T10:15:32;5.20;;;1.98;;
48853;SDS011;34673;52.808;17.856;2022-07-29T10:18:05;2.90;;;1.70;;
48853;SDS011;34673;52.808;17.856;2022-07-29T10:20:33;5.03;;;1.90;;
48853;SDS011;34673;52.808;17.856;2022-07-29T10:23:01;4.20;;;1.65;;
48853;SDS011;34673;52.808;17.856;2022-07-29T10:25:29;4.13;;;1.38;;
48853;SDS011;34673;52.808;17.856;2022-07-29T10:27:57;5.90;;;1.58;;
48853;SDS011;34673;52.808;17.856;2022-07-29T10:30:24;4.32;;;1.80;;
48853;SDS011;34673;52.808;17.856;2022-07-29T10:44:34;3.97;;;1.60;;
48853;SDS011;34673;52.808;17.856;2022-07-29T10:47:02;2.70;;;1.10;;
48853;SDS011;34673;52.808;17.856;2022-07-29T10:49:30;3.90;;;1.20;;
48853;SDS011;34673;52.808;17.856;2022-07-29T10:59:43;3.53;;;1.25;;
48853;SDS011;34673;52.808;17.856;2022-07-29T11:05:09;7.07;;;1.50;;
48853;SDS011;34673;52.808;17.856;2022-07-29T11:07:38;4.43;;;1.45;;
48853;SDS011;34673;52.808;17.856;2022-07-29T11:15:10;5.47;;;1.50;;
48853;SDS011;34673;52.808;17.856;2022-07-29T11:20:35;2.92;;;1.23;;
48853;SDS011;34673;52.808;17.856;2022-07-29T11:31:34;3.38;;;1.20;;
48853;SDS011;34673;52.808;17.856;2022-07-29T11:34:21;5.20;;;1.48;;
48853;SDS011;34673;52.808;17.856;2022-07-29T11:45:09;3.10;;;1.20;;
48853;SDS011;34673;52.808;17.856;2022-07-29T11:48:04;2.40;;;1.10;;
48853;SDS011;34673;52.808;17.856;2022-07-29T11:50:52;4.88;;;1.08;;
48853;SDS011;34673;52.808;17.856;2022-07-29T11:53:19;2.70;;;1.10;;
48853;SDS011;34673;52.808;17.856;2022-07-29T11:55:47;4.57;;;0.90;;
48853;SDS011;34673;52.808;17.856;2022-07-29T11:58:24;3.60;;;1.00;;
48853;SDS011;34673;52.808;17.856;2022-07-29T12:00:52;1.85;;;1.00;;
48853;SDS011;34673;52.808;17.856;2022-07-29T12:03:39;9.25;;;1.50;;
48853;SDS011;34673;52.808;17.856;2022-07-29T12:06:13;7.65;;;1.30;;
48853;SDS011;34673;52.808;17.856;2022-07-29T12:08:43;4.63;;;1.30;;
48853;SDS011;34673;52.808;17.856;2022-07-29T12:11:19;2.42;;;0.90;;
48853;SDS011;34673;52.808;17.856;2022-07-29T12:13:49;2.50;;;1.00;;
48853;SDS011;34673;52.808;17.856;2022-07-29T12:16:21;4.63;;;1.00;;
48853;SDS011;34673;52.808;17.856;2022-07-29T12:18:56;2.95;;;1.08;;
48853;SDS011;34673;52.808;17.856;2022-07-29T12:21:28;6.10;;;1.10;;
48853;SDS011;34673;52.808;17.856;2022-07-29T12:23:56;5.15;;;1.40;;
48853;SDS011;34673;52.808;17.856;2022-07-29T12:26:34;4.43;;;1.27;;
48853;SDS011;34673;52.808;17.856;2022-07-29T12:29:02;2.15;;;1.00;;
48853;SDS011;34673;52.808;17.856;2022-07-29T12:31:37;3.13;;;1.10;;
48853;SDS011;34673;52.808;17.856;2022-07-29T12:34:13;4.15;;;1.35;;
48853;SDS011;34673;52.808;17.856;2022-07-29T12:36:42;3.25;;;1.30;;
48853;SDS011;34673;52.808;17.856;2022-07-29T12:39:10;5.40;;;1.35;;
48853;SDS011;34673;52.808;17.856;2022-07-29T12:41:39;4.95;;;1.40;;
48853;SDS011;34673;52.808;17.856;2022-07-29T12:44:06;6.75;;;1.25;;
48853;SDS011;34673;52.808;17.856;2022-07-29T12:46:33;4.63;;;1.17;;
48853;SDS011;34673;52.808;17.856;2022-07-29T12:49:01;3.97;;;1.30;;
48853;SDS011;34673;52.808;17.856;2022-07-29T12:51:30;4.75;;;1.20;;
48853;SDS011;34673;52.808;17.856;2022-07-29T12:56:32;2.58;;;1.10;;
48853;SDS011;34673;52.808;17.856;2022-07-29T12:59:16;3.42;;;1.08;;
48853;SDS011;34673;52.808;17.856;2022-07-29T13:01:49;4.70;;;1.45;;
48853;SDS011;34673;52.808;17.856;2022-07-29T13:04:29;2.63;;;1.20;;
48853;SDS011;34673;52.808;17.856;2022-07-29T13:07:01;4.47;;;1.77;;
48853;SDS011;34673;52.808;17.856;2022-07-29T13:09:36;2.85;;;1.20;;
48853;SDS011;34673;52.808;17.856;2022-07-29T13:12:10;4.82;;;1.30;;
48853;SDS011;34673;52.808;17.856;2022-07-29T13:14:42;4.47;;;1.00;;
48853;SDS011;34673;52.808;17.856;2022-07-29T13:17:17;3.78;;;1.00;;
48853;SDS011;34673;52.808;17.856;2022-07-29T13:19:48;3.50;;;1.20;;
48853;SDS011;34673;52.808;17.856;2022-07-29T13:22:23;6.03;;;1.40;;
48853;SDS011;34673;52.808;17.856;2022-07-29T13:24:52;4.82;;;1.45;;
48853;SDS011;34673;52.808;17.856;2022-07-29T13:27:23;3.33;;;1.50;;
48853;SDS011;34673;52.808;17.856;2022-07-29T13:29:52;8.90;;;1.33;;
48853;SDS011;34673;52.808;17.856;2022-07-29T13:32:23;3.70;;;1.10;;
48853;SDS011;34673;52.808;17.856;2022-07-29T13:34:58;4.75;;;1.50;;
48853;SDS011;34673;52.808;17.856;2022-07-29T13:37:30;3.70;;;1.38;;
48853;SDS011;34673;52.808;17.856;2022-07-29T13:39:59;7.93;;;1.20;;
48853;SDS011;34673;52.808;17.856;2022-07-29T13:42:27;6.53;;;1.20;;
48853;SDS011;34673;52.808;17.856;2022-07-29T13:44:54;4.65;;;1.35;;
48853;SDS011;34673;52.808;17.856;2022-07-29T13:47:21;3.40;;;1.05;;
48853;SDS011;34673;52.808;17.856;2022-07-29T13:49:59;5.57;;;1.30;;
48853;SDS011;34673;52.808;17.856;2022-07-29T13:52:27;2.70;;;1.38;;
48853;SDS011;34673;52.808;17.856;2022-07-29T13:54:54;4.93;;;1.58;;
48853;SDS011;34673;52.808;17.856;2022-07-29T13:57:22;5.35;;;1.35;;
48853;SDS011;34673;52.808;17.856;2022-07-29T13:59:49;5.03;;;1.45;;
48853;SDS011;34673;52.808;17.856;2022-07-29T14:02:20;2.33;;;1.30;;
48853;SDS011;34673;52.808;17.856;2022-07-29T14:04:52;4.25;;;1.30;;
48853;SDS011;34673;52.808;17.856;2022-07-29T14:07:20;4.80;;;1.30;;
48853;SDS011;34673;52.808;17.856;2022-07-29T14:09:48;3.08;;;1.35;;
48853;SDS011;34673;52.808;17.856;2022-07-29T14:12:15;4.65;;;1.40;;
48853;SDS011;34673;52.808;17.856;2022-07-29T14:14:42;6.57;;;1.13;;
48853;SDS011;34673;52.808;17.856;2022-07-29T14:17:12;3.03;;;1.02;;
48853;SDS011;34673;52.808;17.856;2022-07-29T14:19:40;4.30;;;1.30;;
48853;SDS011;34673;52.808;17.856;2022-07-29T14:22:07;4.95;;;1.23;;
48853;SDS011;34673;52.808;17.856;2022-07-29T14:24:36;3.72;;;1.30;;
48853;SDS011;34673;52.808;17.856;2022-07-29T14:27:04;6.18;;;1.58;;
48853;SDS011;34673;52.808;17.856;2022-07-29T14:29:33;3.55;;;1.30;;
48853;SDS011;34673;52.808;17.856;2022-07-29T14:32:07;7.03;;;1.30;;
48853;SDS011;34673;52.808;17.856;2022-07-29T14:34:37;2.92;;;1.48;;
48853;SDS011;34673;52.808;17.856;2022-07-29T14:37:05;2.90;;;1.33;;
48853;SDS011;34673;52.808;17.856;2022-07-29T14:39:33;4.85;;;1.35;;
48853;SDS011;34673;52.808;17.856;2022-07-29T14:42:09;4.15;;;1.50;;
48853;SDS011;34673;52.808;17.856;2022-07-29T14:44:39;5.20;;;1.55;;
48853;SDS011;34673;52.808;17.856;2022-07-29T14:47:08;3.30;;;1.20;;
48853;SDS011;34673;52.808;17.856;2022-07-29T14:49:35;4.15;;;1.35;;
48853;SDS011;34673;52.808;17.856;2022-07-29T14:52:02;7.65;;;1.23;;
48853;SDS011;34673;52.808;17.856;2022-07-29T14:54:30;3.28;;;1.23;;
48853;SDS011;34673;52.808;17.856;2022-07-29T14:56:57;3.55;;;1.38;;
48853;SDS011;34673;52.808;17.856;2022-07-29T14:59:25;4.15;;;1.33;;
48853;SDS011;34673;52.808;17.856;2022-07-29T15:01:52;4.45;;;1.60;;
48853;SDS011;34673;52.808;17.856;2022-07-29T15:04:20;4.15;;;1.20;;
48853;SDS011;34673;52.808;17.856;2022-07-29T15:06:47;5.55;;;1.30;;
48853;SDS011;34673;52.808;17.856;2022-07-29T15:09:15;5.53;;;2.20;;
48853;SDS011;34673;52.808;17.856;2022-07-29T15:11:42;4.50;;;1.40;;
48853;SDS011;34673;52.808;17.856;2022-07-29T15:14:10;3.97;;;1.30;;
48853;SDS011;34673;52.808;17.856;2022-07-29T15:16:38;4.88;;;1.40;;
48853;SDS011;34673;52.808;17.856;2022-07-29T15:19:09;6.45;;;1.58;;
48853;SDS011;34673;52.808;17.856;2022-07-29T15:21:36;4.90;;;2.05;;
48853;SDS011;34673;52.808;17.856;2022-07-29T15:24:13;5.07;;;1.60;;
48853;SDS011;34673;52.808;17.856;2022-07-29T15:26:42;4.20;;;1.27;;
48853;SDS011;34673;52.808;17.856;2022-07-29T15:29:10;3.08;;;1.33;;
48853;SDS011;34673;52.808;17.856;2022-07-29T15:31:37;3.38;;;1.10;;
48853;SDS011;34673;52.808;17.856;2022-07-29T15:34:06;5.03;;;1.70;;
48853;SDS011;34673;52.808;17.856;2022-07-29T15:36:33;3.90;;;1.40;;
48853;SDS011;34673;52.808;17.856;2022-07-29T15:39:18;2.40;;;1.00;;
48853;SDS011;34673;52.808;17.856;2022-07-29T15:41:47;4.68;;;1.08;;
48853;SDS011;34673;52.808;17.856;2022-07-29T15:44:15;5.60;;;1.20;;
48853;SDS011;34673;52.808;17.856;2022-07-29T15:46:42;4.53;;;1.45;;
48853;SDS011;34673;52.808;17.856;2022-07-29T15:49:32;3.20;;;1.20;;
48853;SDS011;34673;52.808;17.856;2022-07-29T15:52:17;3.08;;;1.38;;
48853;SDS011;34673;52.808;17.856;2022-07-29T15:54:52;5.28;;;1.40;;
48853;SDS011;34673;52.808;17.856;2022-07-29T15:57:21;3.05;;;1.60;;
48853;SDS011;34673;52.808;17.856;2022-07-29T15:59:49;3.40;;;1.23;;
48853;SDS011;34673;52.808;17.856;2022-07-29T16:02:17;7.90;;;1.15;;
48853;SDS011;34673;52.808;17.856;2022-07-29T16:04:45;2.95;;;1.35;;
48853;SDS011;34673;52.808;17.856;2022-07-29T16:07:12;2.72;;;1.15;;